Aviation Digital Data Service (ADDS)

Output produced by METARs form (0422 UTC 30 May 2015)
found at http://www.aviationweather.gov/adds/metars/
 
KLNS 300353Z AUTO 16007KT 10SM CLR 22/19 A3020 RMK AO2 SLP223 T02220194
KLNS 300253Z AUTO 17007KT 10SM CLR 23/19 A3020 RMK AO2 SLP223 T02330189 50003
KLNS 300153Z 18006KT 10SM CLR 24/19 A3020 RMK AO2 SLP225 T02440189
KLNS 300053Z 17006KT 10SM CLR 24/18 A3019 RMK AO2 SLP220 T02440183
KLNS 292353Z 19009KT 10SM CLR 26/18 A3019 RMK AO2 SLP220 T02610178 10300 20261 55001
KLNS 292253Z 17009KT 10SM CLR 27/18 A3018 RMK AO2 SLP216 T02720178
KLNS 292153Z 15009KT 8SM CLR 29/17 A3018 RMK AO2 SLP218 T02890172
KLNS 292053Z 15007KT 10SM CLR 29/17 A3019 RMK AO2 SLP221 T02940167 58021
KLNS 291953Z VRB05KT 10SM CLR 29/16 A3022 RMK AO2 SLP229 T02890161
KLNS 291853Z VRB04KT 5SM HZ CLR 29/16 A3024 RMK AO2 SLP235 T02890156
KLNS 291753Z 20004KT 10SM CLR 28/15 A3026 RMK AO2 SLP242 T02830150 10289 20200 56009
KLNS 291653Z 14006KT 8SM FEW003 28/14 A3026 RMK AO2 SLP245 T02830144
KLNS 291640Z 09003KT 4SM HZ FEW003 27/14 A3027 RMK AO2 T02670139
KLNS 291553Z VRB03KT 10SM CLR 26/13 A3027 RMK AO2 SLP248 T02560133
KLNS 291453Z 15005KT 10SM CLR 24/12 A3028 RMK AO2 SLP252 T02440122 58007
KLNS 291353Z 08008KT 10SM CLR 24/12 A3030 RMK AO2 SLP256 T02390117
KLNS 291253Z 11013G19KT 10SM CLR 22/12 A3030 RMK AO2 SLP257 T02170117
KLNS 291153Z 09007KT 10SM CLR 20/13 A3031 RMK AO2 SLP259 T02000128 10200 20156 53016
KLNS 291053Z 00000KT 10SM CLR 18/13 A3029 RMK AO2 SLP254 T01780128
KLNS 290953Z AUTO 07005KT 10SM CLR 16/12 A3027 RMK AO2 SLP247 T01560117
KLNS 290853Z AUTO 06003KT 10SM CLR 17/11 A3026 RMK AO2 SLP243 T01670111 53001
KLNS 290753Z AUTO 08004KT 10SM CLR 17/11 A3025 RMK AO2 SLP239 T01720111
KLNS 290653Z AUTO 08003KT 10SM CLR 18/11 A3025 RMK AO2 SLP240 T01830111
KLNS 290553Z AUTO 08004KT 10SM SCT065 19/12 A3026 RMK AO2 SLP243 T01940117 10267 20189 53008
KLNS 290453Z AUTO 06004KT 10SM CLR 20/12 A3024 RMK AO2 SLP238 T02000122 403060183
KLNS 290353Z AUTO 07004KT 10SM CLR 21/13 A3023 RMK AO2 SLP235 T02060128
KLNS 290253Z AUTO 03004KT 10SM CLR 22/14 A3023 RMK AO2 SLP234 T02170139 52019
KLNS 290153Z 02007KT 10SM CLR 22/13 A3021 RMK AO2 SLP228 T02220133
KLNS 290053Z 02006KT 10SM CLR 24/14 A3019 RMK AO2 SLP221 T02390144
KLNS 282353Z 33003KT 10SM CLR 27/15 A3017 RMK AO2 SLP215 T02670150 10306 20267 53003
KLNS 282253Z 32005KT 10SM CLR 28/14 A3017 RMK AO2 SLP212 T02780144
KLNS 282153Z 32010KT 9SM CLR 29/14 A3016 RMK AO2 SLP208 T02940139
KLNS 282053Z 34012KT 10SM CLR 30/15 A3017 RMK AO2 SLP212 T03000150 58002
KLNS 281953Z 32009G15KT 10SM FEW055 30/16 A3018 RMK AO2 SLP215 T03000161
KLNS 281853Z 33008KT 10SM BKN047 29/17 A3017 RMK AO2 SLP214 T02940167
KLNS 281753Z 32009KT 10SM SCT042 30/18 A3017 RMK AO2 SLP214 T03000178 10300 20211 58003
KLNS 281653Z 28008KT 10SM FEW036 28/18 A3018 RMK AO2 SLP217 T02830183